sensor_id;sensor_type;location;lat;lon;timestamp;pressure;altitude;pressure_sealevel;temperature;humidity
23363;BME280;11853;48.080;11.960;2023-03-14T00:02:16;93372.91;;;11.08;98.33
23363;BME280;11853;48.080;11.960;2023-03-14T00:04:42;93372.44;;;11.04;98.27
23363;BME280;11853;48.080;11.960;2023-03-14T00:07:09;93370.00;;;11.02;98.82
23363;BME280;11853;48.080;11.960;2023-03-14T00:09:35;93372.00;;;11.00;99.01
23363;BME280;11853;48.080;11.960;2023-03-14T00:12:01;93366.69;;;11.00;98.84
23363;BME280;11853;48.080;11.960;2023-03-14T00:14:29;93376.06;;;10.96;99.18
23363;BME280;11853;48.080;11.960;2023-03-14T00:16:55;93370.94;;;10.95;99.56
23363;BME280;11853;48.080;11.960;2023-03-14T00:19:20;93361.53;;;10.92;99.43
23363;BME280;11853;48.080;11.960;2023-03-14T00:21:46;93350.09;;;10.92;99.15
23363;BME280;11853;48.080;11.960;2023-03-14T00:24:12;93335.22;;;10.91;99.25
23363;BME280;11853;48.080;11.960;2023-03-14T00:26:37;93328.63;;;10.87;99.50
23363;BME280;11853;48.080;11.960;2023-03-14T00:29:03;93346.94;;;10.81;100.00
23363;BME280;11853;48.080;11.960;2023-03-14T00:31:29;93339.56;;;10.77;100.00
23363;BME280;11853;48.080;11.960;2023-03-14T00:33:54;93324.69;;;10.76;100.00
23363;BME280;11853;48.080;11.960;2023-03-14T00:36:20;93335.09;;;10.77;100.00
23363;BME280;11853;48.080;11.960;2023-03-14T00:38:48;93356.88;;;10.73;100.00
23363;BME280;11853;48.080;11.960;2023-03-14T00:41:17;93375.81;;;10.70;100.00
23363;BME280;11853;48.080;11.960;2023-03-14T00:43:43;93376.38;;;10.87;100.00
23363;BME280;11853;48.080;11.960;2023-03-14T00:46:10;93359.13;;;10.97;98.74
23363;BME280;11853;48.080;11.960;2023-03-14T00:48:35;93347.78;;;10.82;99.97
23363;BME280;11853;48.080;11.960;2023-03-14T00:51:02;93347.53;;;10.77;100.00
23363;BME280;11853;48.080;11.960;2023-03-14T00:53:28;93347.28;;;10.72;100.00
23363;BME280;11853;48.080;11.960;2023-03-14T00:55:54;93361.34;;;10.72;100.00
23363;BME280;11853;48.080;11.960;2023-03-14T00:58:20;93345.91;;;10.76;100.00
23363;BME280;11853;48.080;11.960;2023-03-14T01:00:45;93350.63;;;10.80;100.00
23363;BME280;11853;48.080;11.960;2023-03-14T01:03:12;93364.53;;;10.82;100.00
23363;BME280;11853;48.080;11.960;2023-03-14T01:05:38;93364.94;;;10.86;100.00
23363;BME280;11853;48.080;11.960;2023-03-14T01:08:07;93361.22;;;10.80;100.00
23363;BME280;11853;48.080;11.960;2023-03-14T01:10:34;93360.81;;;10.77;100.00
23363;BME280;11853;48.080;11.960;2023-03-14T01:13:00;93373.25;;;10.76;100.00
23363;BME280;11853;48.080;11.960;2023-03-14T01:15:26;93377.97;;;10.81;99.95
23363;BME280;11853;48.080;11.960;2023-03-14T01:17:51;93374.69;;;10.79;100.00
23363;BME280;11853;48.080;11.960;2023-03-14T01:20:19;93382.03;;;10.77;100.00
23363;BME280;11853;48.080;11.960;2023-03-14T01:22:44;93380.38;;;10.76;100.00
23363;BME280;11853;48.080;11.960;2023-03-14T01:25:13;93375.44;;;10.73;100.00
23363;BME280;11853;48.080;11.960;2023-03-14T01:27:39;93362.19;;;10.73;100.00
23363;BME280;11853;48.080;11.960;2023-03-14T01:30:05;93348.91;;;10.73;100.00
23363;BME280;11853;48.080;11.960;2023-03-14T01:32:33;93350.19;;;10.77;100.00
23363;BME280;11853;48.080;11.960;2023-03-14T01:34:59;93351.00;;;10.77;100.00
23363;BME280;11853;48.080;11.960;2023-03-14T01:37:25;93347.53;;;10.77;100.00
23363;BME280;11853;48.080;11.960;2023-03-14T01:39:50;93345.91;;;10.76;100.00
23363;BME280;11853;48.080;11.960;2023-03-14T01:42:16;93350.19;;;10.77;100.00
23363;BME280;11853;48.080;11.960;2023-03-14T01:45:00;93354.47;;;10.78;100.00
23363;BME280;11853;48.080;11.960;2023-03-14T01:47:26;93343.44;;;10.74;100.00
23363;BME280;11853;48.080;11.960;2023-03-14T01:50:05;93345.81;;;10.69;100.00
23363;BME280;11853;48.080;11.960;2023-03-14T01:52:45;93348.22;;;10.64;100.00
23363;BME280;11853;48.080;11.960;2023-03-14T01:55:14;93352.78;;;10.70;100.00
23363;BME280;11853;48.080;11.960;2023-03-14T01:57:55;93355.44;;;10.70;100.00
23363;BME280;11853;48.080;11.960;2023-03-14T02:00:22;93356.00;;;10.66;100.00
23363;BME280;11853;48.080;11.960;2023-03-14T02:02:51;93353.31;;;10.59;100.00
23363;BME280;11853;48.080;11.960;2023-03-14T02:05:23;93353.31;;;10.59;100.00
23363;BME280;11853;48.080;11.960;2023-03-14T02:07:54;93357.97;;;10.57;100.00
23363;BME280;11853;48.080;11.960;2023-03-14T02:10:22;93358.53;;;10.52;100.00
23363;BME280;11853;48.080;11.960;2023-03-14T02:12:50;93355.06;;;10.52;100.00
23363;BME280;11853;48.080;11.960;2023-03-14T02:15:17;93351.97;;;10.48;100.00
23363;BME280;11853;48.080;11.960;2023-03-14T02:17:44;93359.94;;;10.48;100.00
23363;BME280;11853;48.080;11.960;2023-03-14T02:22:51;93373.03;;;10.35;100.00
23363;BME280;11853;48.080;11.960;2023-03-14T02:25:33;93381.63;;;10.37;100.00
23363;BME280;11853;48.080;11.960;2023-03-14T02:28:21;93376.72;;;10.34;100.00
23363;BME280;11853;48.080;11.960;2023-03-14T02:30:47;93377.53;;;10.34;100.00
23363;BME280;11853;48.080;11.960;2023-03-14T02:33:17;93382.00;;;10.34;100.00
23363;BME280;11853;48.080;11.960;2023-03-14T02:40:44;93371.44;;;10.19;100.00
23363;BME280;11853;48.080;11.960;2023-03-14T02:43:09;93365.47;;;10.17;100.00
23363;BME280;11853;48.080;11.960;2023-03-14T02:48:07;93370.06;;;10.08;100.00
23363;BME280;11853;48.080;11.960;2023-03-14T02:50:34;93356.44;;;10.11;100.00
23363;BME280;11853;48.080;11.960;2023-03-14T02:53:00;93359.59;;;10.00;100.00
23363;BME280;11853;48.080;11.960;2023-03-14T02:55:26;93343.69;;;10.00;100.00
23363;BME280;11853;48.080;11.960;2023-03-14T02:57:52;93336.88;;;9.91;100.00
23363;BME280;11853;48.080;11.960;2023-03-14T03:00:19;93325.91;;;9.94;100.00
23363;BME280;11853;48.080;11.960;2023-03-14T03:02:45;93320.69;;;9.86;100.00
23363;BME280;11853;48.080;11.960;2023-03-14T03:05:10;93314.53;;;9.79;100.00
23363;BME280;11853;48.080;11.960;2023-03-14T03:07:36;93302.28;;;9.78;100.00
23363;BME280;11853;48.080;11.960;2023-03-14T03:10:02;93288.03;;;9.79;100.00
23363;BME280;11853;48.080;11.960;2023-03-14T03:12:28;93294.59;;;9.83;100.00
23363;BME280;11853;48.080;11.960;2023-03-14T03:14:53;93290.69;;;9.79;100.00
23363;BME280;11853;48.080;11.960;2023-03-14T03:17:19;93277.06;;;9.82;100.00
23363;BME280;11853;48.080;11.960;2023-03-14T03:19:44;93273.41;;;9.83;100.00
23363;BME280;11853;48.080;11.960;2023-03-14T03:22:10;93274.97;;;9.77;100.00
23363;BME280;11853;48.080;11.960;2023-03-14T03:24:36;93263.34;;;9.78;100.00
23363;BME280;11853;48.080;11.960;2023-03-14T03:27:02;93269.50;;;9.79;100.00
23363;BME280;11853;48.080;11.960;2023-03-14T03:29:27;93257.63;;;9.75;100.00
23363;BME280;11853;48.080;11.960;2023-03-14T03:31:53;93259.41;;;9.67;100.00
23363;BME280;11853;48.080;11.960;2023-03-14T03:34:19;93240.59;;;9.62;100.00
23363;BME280;11853;48.080;11.960;2023-03-14T03:36:45;93242.09;;;9.50;100.00
23363;BME280;11853;48.080;11.960;2023-03-14T03:39:10;93228.66;;;9.52;100.00
23363;BME280;11853;48.080;11.960;2023-03-14T03:41:36;93234.25;;;9.42;100.00
23363;BME280;11853;48.080;11.960;2023-03-14T03:44:02;93233.25;;;9.43;100.00
23363;BME280;11853;48.080;11.960;2023-03-14T03:46:27;93219.91;;;9.51;100.00
23363;BME280;11853;48.080;11.960;2023-03-14T03:49:00;93217.25;;;9.51;100.00
23363;BME280;11853;48.080;11.960;2023-03-14T03:51:26;93235.59;;;9.53;100.00
23363;BME280;11853;48.080;11.960;2023-03-14T03:53:51;93228.50;;;9.53;100.00
23363;BME280;11853;48.080;11.960;2023-03-14T03:56:17;93237.88;;;9.56;100.00
23363;BME280;11853;48.080;11.960;2023-03-14T03:58:43;93250.91;;;9.57;100.00
23363;BME280;11853;48.080;11.960;2023-03-14T04:01:09;93254.59;;;9.56;100.00
23363;BME280;11853;48.080;11.960;2023-03-14T04:03:36;93257.03;;;9.58;100.00
23363;BME280;11853;48.080;11.960;2023-03-14T04:06:08;93252.00;;;9.63;100.00
23363;BME280;11853;48.080;11.960;2023-03-14T04:08:34;93259.13;;;9.62;100.00
23363;BME280;11853;48.080;11.960;2023-03-14T04:11:01;93266.63;;;9.59;100.00
23363;BME280;11853;48.080;11.960;2023-03-14T04:13:28;93265.91;;;9.50;100.00
23363;BME280;11853;48.080;11.960;2023-03-14T04:15:54;93268.91;;;9.47;100.00
23363;BME280;11853;48.080;11.960;2023-03-14T04:18:21;93266.47;;;9.45;100.00
23363;BME280;11853;48.080;11.960;2023-03-14T04:20:54;93269.28;;;9.44;100.00
23363;BME280;11853;48.080;11.960;2023-03-14T04:23:20;93267.22;;;9.39;100.00
23363;BME280;11853;48.080;11.960;2023-03-14T04:25:46;93258.47;;;9.39;100.00
23363;BME280;11853;48.080;11.960;2023-03-14T04:28:11;93254.97;;;9.38;100.00
23363;BME280;11853;48.080;11.960;2023-03-14T04:30:37;93258.63;;;9.37;100.00
23363;BME280;11853;48.080;11.960;2023-03-14T04:33:02;93250.50;;;9.39;100.00
23363;BME280;11853;48.080;11.960;2023-03-14T04:35:30;93247.66;;;9.40;100.00
23363;BME280;11853;48.080;11.960;2023-03-14T04:37:56;93230.69;;;9.35;100.00
23363;BME280;11853;48.080;11.960;2023-03-14T04:40:22;93222.13;;;9.33;100.00
23363;BME280;11853;48.080;11.960;2023-03-14T04:42:47;93228.88;;;9.35;100.00
23363;BME280;11853;48.080;11.960;2023-03-14T04:45:13;93219.47;;;9.33;100.00
23363;BME280;11853;48.080;11.960;2023-03-14T04:47:38;93214.56;;;9.30;100.00
23363;BME280;11853;48.080;11.960;2023-03-14T04:50:04;93221.94;;;9.34;100.00
23363;BME280;11853;48.080;11.960;2023-03-14T04:52:30;93217.47;;;9.35;100.00
23363;BME280;11853;48.080;11.960;2023-03-14T04:54:56;93217.66;;;9.33;100.00
23363;BME280;11853;48.080;11.960;2023-03-14T04:57:21;93230.69;;;9.35;100.00
23363;BME280;11853;48.080;11.960;2023-03-14T04:59:47;93226.22;;;9.35;100.00
23363;BME280;11853;48.080;11.960;2023-03-14T05:02:12;93218.16;;;9.22;100.00
23363;BME280;11853;48.080;11.960;2023-03-14T05:04:38;93220.22;;;9.27;100.00
23363;BME280;11853;48.080;11.960;2023-03-14T05:07:04;93221.97;;;9.19;100.00
23363;BME280;11853;48.080;11.960;2023-03-14T05:09:29;93209.19;;;9.23;100.00
23363;BME280;11853;48.080;11.960;2023-03-14T05:11:55;93204.66;;;9.17;100.00
23363;BME280;11853;48.080;11.960;2023-03-14T05:14:20;93214.03;;;9.19;100.00
23363;BME280;11853;48.080;11.960;2023-03-14T05:16:46;93211.13;;;9.14;100.00
23363;BME280;11853;48.080;11.960;2023-03-14T05:19:12;93209.94;;;9.17;100.00
23363;BME280;11853;48.080;11.960;2023-03-14T05:21:37;93209.50;;;9.13;100.00
23363;BME280;11853;48.080;11.960;2023-03-14T05:24:03;93210.38;;;9.20;100.00
23363;BME280;11853;48.080;11.960;2023-03-14T05:26:29;93191.22;;;9.18;100.00
23363;BME280;11853;48.080;11.960;2023-03-14T05:28:54;93193.25;;;9.16;100.00
23363;BME280;11853;48.080;11.960;2023-03-14T05:31:20;93188.34;;;9.13;100.00
23363;BME280;11853;48.080;11.960;2023-03-14T05:33:46;93188.88;;;9.09;100.00
23363;BME280;11853;48.080;11.960;2023-03-14T05:36:11;93193.63;;;9.13;100.00
23363;BME280;11853;48.080;11.960;2023-03-14T05:38:45;93186.66;;;9.12;100.00
23363;BME280;11853;48.080;11.960;2023-03-14T05:41:11;93191.16;;;9.12;100.00
23363;BME280;11853;48.080;11.960;2023-03-14T05:43:37;93185.69;;;9.13;100.00
23363;BME280;11853;48.080;11.960;2023-03-14T05:46:02;93190.97;;;9.13;100.00
23363;BME280;11853;48.080;11.960;2023-03-14T05:48:28;93182.56;;;9.10;100.00
23363;BME280;11853;48.080;11.960;2023-03-14T05:50:57;93183.28;;;9.18;100.00
23363;BME280;11853;48.080;11.960;2023-03-14T05:53:24;93183.47;;;9.17;100.00
23363;BME280;11853;48.080;11.960;2023-03-14T05:55:53;93168.06;;;9.20;100.00
23363;BME280;11853;48.080;11.960;2023-03-14T05:58:19;93172.97;;;9.23;100.00
23363;BME280;11853;48.080;11.960;2023-03-14T06:00:44;93160.38;;;9.25;100.00
23363;BME280;11853;48.080;11.960;2023-03-14T06:03:10;93178.25;;;9.23;100.00
23363;BME280;11853;48.080;11.960;2023-03-14T06:05:35;93175.44;;;9.25;100.00
23363;BME280;11853;48.080;11.960;2023-03-14T06:08:01;93170.97;;;9.25;100.00
23363;BME280;11853;48.080;11.960;2023-03-14T06:10:27;93176.00;;;9.20;100.00
23363;BME280;11853;48.080;11.960;2023-03-14T06:12:52;93181.53;;;9.25;100.00
23363;BME280;11853;48.080;11.960;2023-03-14T06:15:18;93163.19;;;9.24;100.00
23363;BME280;11853;48.080;11.960;2023-03-14T06:17:43;93170.97;;;9.25;100.00
23363;BME280;11853;48.080;11.960;2023-03-14T06:20:10;93168.16;;;9.27;100.00
23363;BME280;11853;48.080;11.960;2023-03-14T06:22:36;93170.97;;;9.25;100.00
23363;BME280;11853;48.080;11.960;2023-03-14T06:25:01;93172.97;;;9.23;100.00
23363;BME280;11853;48.080;11.960;2023-03-14T06:27:28;93179.91;;;9.24;100.00
23363;BME280;11853;48.080;11.960;2023-03-14T06:29:54;93172.97;;;9.23;100.00
23363;BME280;11853;48.080;11.960;2023-03-14T06:32:20;93167.69;;;9.23;100.00
23363;BME280;11853;48.080;11.960;2023-03-14T06:34:46;93163.19;;;9.24;100.00
23363;BME280;11853;48.080;11.960;2023-03-14T06:37:11;93163.66;;;9.28;100.00
23363;BME280;11853;48.080;11.960;2023-03-14T06:39:37;93152.63;;;9.24;100.00
23363;BME280;11853;48.080;11.960;2023-03-14T06:42:04;93145.91;;;9.21;100.00
23363;BME280;11853;48.080;11.960;2023-03-14T06:44:29;93148.34;;;9.23;100.00
23363;BME280;11853;48.080;11.960;2023-03-14T06:46:55;93146.50;;;9.23;100.00
23363;BME280;11853;48.080;11.960;2023-03-14T06:49:21;93144.56;;;9.32;100.00
23363;BME280;11853;48.080;11.960;2023-03-14T06:51:47;93146.91;;;9.42;100.00
23363;BME280;11853;48.080;11.960;2023-03-14T06:54:13;93149.19;;;9.45;100.00
23363;BME280;11853;48.080;11.960;2023-03-14T06:56:38;93156.56;;;9.50;100.00
23363;BME280;11853;48.080;11.960;2023-03-14T06:59:04;93161.13;;;9.56;100.00
23363;BME280;11853;48.080;11.960;2023-03-14T07:01:30;93166.75;;;9.53;100.00
23363;BME280;11853;48.080;11.960;2023-03-14T07:03:57;93167.97;;;9.50;100.00
23363;BME280;11853;48.080;11.960;2023-03-14T07:06:23;93160.28;;;9.55;100.00
23363;BME280;11853;48.080;11.960;2023-03-14T07:08:49;93166.97;;;9.51;100.00
23363;BME280;11853;48.080;11.960;2023-03-14T07:11:15;93177.28;;;9.46;100.00
23363;BME280;11853;48.080;11.960;2023-03-14T07:13:40;93167.13;;;9.50;100.00
23363;BME280;11853;48.080;11.960;2023-03-14T07:16:07;93176.91;;;9.49;100.00
23363;BME280;11853;48.080;11.960;2023-03-14T07:18:33;93163.69;;;9.49;100.00
23363;BME280;11853;48.080;11.960;2023-03-14T07:20:58;93165.69;;;9.47;100.00
23363;BME280;11853;48.080;11.960;2023-03-14T07:23:26;93157.50;;;9.42;100.00
23363;BME280;11853;48.080;11.960;2023-03-14T07:25:51;93167.34;;;9.48;100.00
23363;BME280;11853;48.080;11.960;2023-03-14T07:28:19;93163.25;;;9.45;100.00
23363;BME280;11853;48.080;11.960;2023-03-14T07:30:46;93161.84;;;9.50;100.00
23363;BME280;11853;48.080;11.960;2023-03-14T07:33:12;93172.25;;;9.51;100.00
23363;BME280;11853;48.080;11.960;2023-03-14T07:35:38;93171.25;;;9.52;100.00
23363;BME280;11853;48.080;11.960;2023-03-14T07:38:03;93168.72;;;9.44;100.00
23363;BME280;11853;48.080;11.960;2023-03-14T07:40:31;93174.22;;;9.42;100.00
23363;BME280;11853;48.080;11.960;2023-03-14T07:42:57;93173.44;;;9.48;100.00
23363;BME280;11853;48.080;11.960;2023-03-14T07:45:22;93174.53;;;9.54;100.00
23363;BME280;11853;48.080;11.960;2023-03-14T07:47:48;93174.25;;;9.49;100.00
23363;BME280;11853;48.080;11.960;2023-03-14T07:50:14;93171.63;;;9.49;100.00
23363;BME280;11853;48.080;11.960;2023-03-14T07:52:40;93171.25;;;9.52;100.00
23363;BME280;11853;48.080;11.960;2023-03-14T07:55:06;93168.78;;;9.51;100.00
23363;BME280;11853;48.080;11.960;2023-03-14T07:57:31;93163.28;;;9.52;100.00
23363;BME280;11853;48.080;11.960;2023-03-14T07:59:57;93167.84;;;9.58;100.00
23363;BME280;11853;48.080;11.960;2023-03-14T08:02:23;93168.47;;;9.60;100.00
23363;BME280;11853;48.080;11.960;2023-03-14T08:04:50;93168.09;;;9.63;100.00
23363;BME280;11853;48.080;11.960;2023-03-14T08:07:16;93168.53;;;9.67;100.00
23363;BME280;11853;48.080;11.960;2023-03-14T08:09:41;93156.56;;;9.71;100.00
23363;BME280;11853;48.080;11.960;2023-03-14T08:12:07;93164.78;;;9.76;100.00
23363;BME280;11853;48.080;11.960;2023-03-14T08:14:33;93157.25;;;9.80;100.00
23363;BME280;11853;48.080;11.960;2023-03-14T08:16:59;93161.34;;;9.82;100.00
23363;BME280;11853;48.080;11.960;2023-03-14T08:19:25;93153.84;;;9.86;100.00
23363;BME280;11853;48.080;11.960;2023-03-14T08:21:50;93146.72;;;9.86;100.00
23363;BME280;11853;48.080;11.960;2023-03-14T08:24:16;93162.03;;;9.91;100.00
23363;BME280;11853;48.080;11.960;2023-03-14T08:26:42;93159.44;;;9.98;100.00
23363;BME280;11853;48.080;11.960;2023-03-14T08:29:07;93172.13;;;10.02;100.00
23363;BME280;11853;48.080;11.960;2023-03-14T08:31:34;93163.16;;;10.03;100.00
23363;BME280;11853;48.080;11.960;2023-03-14T08:34:01;93164.19;;;10.02;100.00
23363;BME280;11853;48.080;11.960;2023-03-14T08:36:27;93173.13;;;10.01;100.00
23363;BME280;11853;48.080;11.960;2023-03-14T08:38:56;93168.47;;;10.03;100.00
23363;BME280;11853;48.080;11.960;2023-03-14T08:41:25;93177.84;;;10.06;100.00
23363;BME280;11853;48.080;11.960;2023-03-14T08:43:51;93166.22;;;10.07;100.00
23363;BME280;11853;48.080;11.960;2023-03-14T08:46:16;93176.91;;;10.13;100.00
23363;BME280;11853;48.080;11.960;2023-03-14T08:48:42;93184.22;;;10.11;100.00
23363;BME280;11853;48.080;11.960;2023-03-14T08:51:09;93185.91;;;10.19;100.00
23363;BME280;11853;48.080;11.960;2023-03-14T08:53:36;93195.25;;;10.15;100.00
23363;BME280;11853;48.080;11.960;2023-03-14T08:56:02;93204.00;;;10.15;100.00
23363;BME280;11853;48.080;11.960;2023-03-14T08:58:29;93198.28;;;10.12;100.00
23363;BME280;11853;48.080;11.960;2023-03-14T09:00:55;93200.28;;;10.10;100.00
23363;BME280;11853;48.080;11.960;2023-03-14T09:03:20;93199.06;;;10.06;100.00
23363;BME280;11853;48.080;11.960;2023-03-14T09:05:49;93207.56;;;10.01;100.00
23363;BME280;11853;48.080;11.960;2023-03-14T09:08:14;93217.78;;;10.04;100.00
23363;BME280;11853;48.080;11.960;2023-03-14T09:10:40;93213.75;;;10.08;100.00
23363;BME280;11853;48.080;11.960;2023-03-14T09:13:06;93219.81;;;10.02;100.00
23363;BME280;11853;48.080;11.960;2023-03-14T09:15:32;93216.16;;;10.03;100.00
23363;BME280;11853;48.080;11.960;2023-03-14T09:17:58;93218.41;;;10.06;100.00
23363;BME280;11853;48.080;11.960;2023-03-14T09:20:24;93206.44;;;10.10;100.00
23363;BME280;11853;48.080;11.960;2023-03-14T09:22:49;93217.28;;;9.94;100.00
23363;BME280;11853;48.080;11.960;2023-03-14T09:25:15;93209.91;;;9.89;100.00
23363;BME280;11853;48.080;11.960;2023-03-14T09:27:41;93212.75;;;9.88;100.00
23363;BME280;11853;48.080;11.960;2023-03-14T09:30:07;93214.25;;;9.97;100.00
23363;BME280;11853;48.080;11.960;2023-03-14T09:32:33;93203.41;;;9.92;100.00
23363;BME280;11853;48.080;11.960;2023-03-14T09:34:59;93204.53;;;9.83;100.00
23363;BME280;11853;48.080;11.960;2023-03-14T09:37:24;93206.69;;;9.73;100.00
23363;BME280;11853;48.080;11.960;2023-03-14T09:39:50;93214.25;;;9.76;100.00
23363;BME280;11853;48.080;11.960;2023-03-14T09:42:22;93217.91;;;9.75;100.00
23363;BME280;11853;48.080;11.960;2023-03-14T09:45:04;93216.28;;;9.74;100.00
23363;BME280;11853;48.080;11.960;2023-03-14T09:47:34;93205.78;;;9.87;100.00
23363;BME280;11853;48.080;11.960;2023-03-14T09:50:00;93200.00;;;9.77;100.00
23363;BME280;11853;48.080;11.960;2023-03-14T09:52:33;93199.25;;;9.83;100.00
23363;BME280;11853;48.080;11.960;2023-03-14T09:55:07;93210.34;;;9.72;100.00
23363;BME280;11853;48.080;11.960;2023-03-14T09:57:37;93204.78;;;9.66;100.00
23363;BME280;11853;48.080;11.960;2023-03-14T10:00:09;93205.81;;;9.65;100.00
23363;BME280;11853;48.080;11.960;2023-03-14T10:02:40;93198.34;;;9.76;100.00
23363;BME280;11853;48.080;11.960;2023-03-14T10:05:19;93174.03;;;9.65;100.00
23363;BME280;11853;48.080;11.960;2023-03-14T10:07:45;93182.59;;;9.46;100.00
23363;BME280;11853;48.080;11.960;2023-03-14T10:12:46;93180.50;;;9.41;100.00
23363;BME280;11853;48.080;11.960;2023-03-14T10:15:13;93175.06;;;9.50;100.00
23363;BME280;11853;48.080;11.960;2023-03-14T10:17:48;93174.53;;;9.54;100.00
23363;BME280;11853;48.080;11.960;2023-03-14T10:23:01;93169.44;;;9.74;100.00
23363;BME280;11853;48.080;11.960;2023-03-14T10:25:30;93164.25;;;9.66;100.00
23363;BME280;11853;48.080;11.960;2023-03-14T10:27:57;93172.63;;;9.69;100.00
23363;BME280;11853;48.080;11.960;2023-03-14T10:33:33;93177.16;;;9.76;100.00
23363;BME280;11853;48.080;11.960;2023-03-14T10:36:22;93178.06;;;9.83;100.00
23363;BME280;11853;48.080;11.960;2023-03-14T10:38:49;93168.34;;;9.90;100.00
23363;BME280;11853;48.080;11.960;2023-03-14T10:41:18;93168.84;;;10.00;100.00
23363;BME280;11853;48.080;11.960;2023-03-14T10:43:45;93163.41;;;10.08;100.00
23363;BME280;11853;48.080;11.960;2023-03-14T10:46:16;93175.94;;;10.21;100.00
23363;BME280;11853;48.080;11.960;2023-03-14T10:48:43;93181.88;;;10.23;100.00
23363;BME280;11853;48.080;11.960;2023-03-14T10:51:30;93174.38;;;10.27;100.00
23363;BME280;11853;48.080;11.960;2023-03-14T10:56:25;93166.38;;;10.48;100.00
23363;BME280;11853;48.080;11.960;2023-03-14T10:58:57;93170.75;;;10.63;100.00
23363;BME280;11853;48.080;11.960;2023-03-14T11:07:18;93178.00;;;10.82;100.00
23363;BME280;11853;48.080;11.960;2023-03-14T11:12:29;93181.63;;;11.16;100.00
23363;BME280;11853;48.080;11.960;2023-03-14T11:20:38;93168.53;;;11.62;97.61
23363;BME280;11853;48.080;11.960;2023-03-14T11:26:01;93173.03;;;11.62;97.06
23363;BME280;11853;48.080;11.960;2023-03-14T11:28:37;93163.84;;;11.84;95.55
23363;BME280;11853;48.080;11.960;2023-03-14T11:31:33;93166.75;;;11.89;96.66
23363;BME280;11853;48.080;11.960;2023-03-14T11:37:34;93142.44;;;11.86;94.44
23363;BME280;11853;48.080;11.960;2023-03-14T11:39:43;93148.16;;;11.89;93.33
23363;BME280;11853;48.080;11.960;2023-03-14T11:42:16;93146.53;;;11.88;91.42
23363;BME280;11853;48.080;11.960;2023-03-14T11:44:45;93150.00;;;11.89;91.08
23363;BME280;11853;48.080;11.960;2023-03-14T11:47:34;93136.69;;;11.82;93.00
23363;BME280;11853;48.080;11.960;2023-03-14T11:50:22;93150.38;;;11.79;92.85
23363;BME280;11853;48.080;11.960;2023-03-14T11:55:35;93136.47;;;11.84;92.58
23363;BME280;11853;48.080;11.960;2023-03-14T11:58:29;93130.78;;;12.07;91.63
23363;BME280;11853;48.080;11.960;2023-03-14T12:00:56;93119.53;;;12.25;93.22
23363;BME280;11853;48.080;11.960;2023-03-14T12:06:17;93113.97;;;12.59;93.75
23363;BME280;11853;48.080;11.960;2023-03-14T12:08:56;93119.25;;;12.66;93.56
23363;BME280;11853;48.080;11.960;2023-03-14T12:14:01;93108.00;;;12.64;93.56
23363;BME280;11853;48.080;11.960;2023-03-14T12:16:33;93112.13;;;12.60;93.64
23363;BME280;11853;48.080;11.960;2023-03-14T12:21:50;93112.34;;;12.45;89.32
23363;BME280;11853;48.080;11.960;2023-03-14T12:24:23;93114.59;;;12.35;87.19
23363;BME280;11853;48.080;11.960;2023-03-14T12:26:58;93108.47;;;12.34;88.01
23363;BME280;11853;48.080;11.960;2023-03-14T12:29:25;93102.13;;;12.35;86.97
23363;BME280;11853;48.080;11.960;2023-03-14T12:34:28;93098.63;;;12.42;79.32
23363;BME280;11853;48.080;11.960;2023-03-14T12:40:03;93090.03;;;12.53;78.26
23363;BME280;11853;48.080;11.960;2023-03-14T12:43:00;93096.38;;;12.52;77.67
23363;BME280;11853;48.080;11.960;2023-03-14T12:45:31;93101.09;;;12.56;77.55
23363;BME280;11853;48.080;11.960;2023-03-14T12:48:22;93089.59;;;12.56;76.17
23363;BME280;11853;48.080;11.960;2023-03-14T12:51:00;93089.59;;;12.56;77.36
23363;BME280;11853;48.080;11.960;2023-03-14T12:56:24;93094.31;;;12.47;77.21
23363;BME280;11853;48.080;11.960;2023-03-14T12:59:19;93095.75;;;12.50;76.93
23363;BME280;11853;48.080;11.960;2023-03-14T13:01:59;93098.00;;;12.53;77.99
23363;BME280;11853;48.080;11.960;2023-03-14T13:05:21;93101.88;;;12.50;80.27
23363;BME280;11853;48.080;11.960;2023-03-14T13:15:31;93116.06;;;12.31;80.94
23363;BME280;11853;48.080;11.960;2023-03-14T13:18:13;93107.25;;;12.30;81.76
23363;BME280;11853;48.080;11.960;2023-03-14T13:20:50;93111.75;;;12.36;81.35
23363;BME280;11853;48.080;11.960;2023-03-14T13:23:31;93112.16;;;12.33;80.90
23363;BME280;11853;48.080;11.960;2023-03-14T13:25:57;93109.31;;;12.28;81.76
23363;BME280;11853;48.080;11.960;2023-03-14T13:28:24;93124.88;;;12.25;80.74
23363;BME280;11853;48.080;11.960;2023-03-14T13:30:55;93123.44;;;12.22;81.86
23363;BME280;11853;48.080;11.960;2023-03-14T13:33:22;93132.22;;;12.23;81.78
23363;BME280;11853;48.080;11.960;2023-03-14T13:35:55;93130.78;;;12.20;82.02
23363;BME280;11853;48.080;11.960;2023-03-14T13:38:26;93127.72;;;12.23;82.08
23363;BME280;11853;48.080;11.960;2023-03-14T13:40:54;93144.47;;;12.24;81.34
23363;BME280;11853;48.080;11.960;2023-03-14T13:43:32;93134.84;;;12.16;80.75
23363;BME280;11853;48.080;11.960;2023-03-14T13:46:07;93145.72;;;12.08;78.53
23363;BME280;11853;48.080;11.960;2023-03-14T13:48:45;93139.56;;;12.01;77.53
23363;BME280;11853;48.080;11.960;2023-03-14T13:51:14;93150.19;;;11.87;78.74
23363;BME280;11853;48.080;11.960;2023-03-14T13:53:46;93171.63;;;11.79;80.02
23363;BME280;11853;48.080;11.960;2023-03-14T13:56:12;93168.13;;;11.79;80.45
23363;BME280;11853;48.080;11.960;2023-03-14T13:58:39;93176.09;;;11.79;79.90
23363;BME280;11853;48.080;11.960;2023-03-14T14:01:30;93177.13;;;11.71;81.75
23363;BME280;11853;48.080;11.960;2023-03-14T14:03:58;93184.47;;;11.69;80.30